sensor_id;sensor_type;location;lat;lon;timestamp;pressure;altitude;pressure_sealevel;temperature;humidity
8581;BME280;4328;48.622;9.230;2024-02-21T00:01:14;99034.06;;;4.28;90.91
8581;BME280;4328;48.622;9.230;2024-02-21T00:03:41;99042.84;;;4.30;91.03
8581;BME280;4328;48.622;9.230;2024-02-21T00:06:08;99035.53;;;4.32;91.13
8581;BME280;4328;48.622;9.230;2024-02-21T00:08:34;99035.28;;;4.35;90.62
8581;BME280;4328;48.622;9.230;2024-02-21T00:11:02;99027.69;;;4.41;90.75
8581;BME280;4328;48.622;9.230;2024-02-21T00:13:29;99031.09;;;4.43;90.84
8581;BME280;4328;48.622;9.230;2024-02-21T00:15:56;99019.13;;;4.47;90.78
8581;BME280;4328;48.622;9.230;2024-02-21T00:18:22;99015.59;;;4.46;91.02
8581;BME280;4328;48.622;9.230;2024-02-21T00:20:49;99024.63;;;4.45;90.98
8581;BME280;4328;48.622;9.230;2024-02-21T00:23:15;99007.69;;;4.33;91.14
8581;BME280;4328;48.622;9.230;2024-02-21T00:25:42;99022.06;;;4.44;91.11
8581;BME280;4328;48.622;9.230;2024-02-21T00:28:10;99019.84;;;4.49;90.89
8581;BME280;4328;48.622;9.230;2024-02-21T00:30:36;99014.00;;;4.44;91.03
8581;BME280;4328;48.622;9.230;2024-02-21T00:33:04;99009.72;;;4.41;90.77
8581;BME280;4328;48.622;9.230;2024-02-21T00:35:30;99002.78;;;4.39;90.57
8581;BME280;4328;48.622;9.230;2024-02-21T00:37:57;98998.66;;;4.34;90.97
8581;BME280;4328;48.622;9.230;2024-02-21T00:40:24;98992.56;;;4.32;91.19
8581;BME280;4328;48.622;9.230;2024-02-21T00:42:51;98999.75;;;4.32;91.17
8581;BME280;4328;48.622;9.230;2024-02-21T00:45:19;98991.72;;;4.32;92.09
8581;BME280;4328;48.622;9.230;2024-02-21T00:47:45;98993.41;;;4.33;91.67
8581;BME280;4328;48.622;9.230;2024-02-21T00:50:12;99000.38;;;4.35;92.19
8581;BME280;4328;48.622;9.230;2024-02-21T00:52:39;98988.66;;;4.37;92.19
8581;BME280;4328;48.622;9.230;2024-02-21T00:55:06;98989.47;;;4.37;92.28
8581;BME280;4328;48.622;9.230;2024-02-21T00:57:33;98978.91;;;4.35;92.50
8581;BME280;4328;48.622;9.230;2024-02-21T01:00:00;98980.19;;;4.41;92.11
8581;BME280;4328;48.622;9.230;2024-02-21T01:02:28;98982.75;;;4.43;92.06
8581;BME280;4328;48.622;9.230;2024-02-21T01:04:56;98973.00;;;4.42;92.53
8581;BME280;4328;48.622;9.230;2024-02-21T01:07:23;98945.75;;;4.14;92.16
8581;BME280;4328;48.622;9.230;2024-02-21T01:09:50;98981.31;;;4.39;92.12
8581;BME280;4328;48.622;9.230;2024-02-21T01:12:17;98972.38;;;4.38;92.15
8581;BME280;4328;48.622;9.230;2024-02-21T01:14:44;98972.56;;;4.37;92.09
8581;BME280;4328;48.622;9.230;2024-02-21T01:17:11;98967.75;;;4.40;92.08
8581;BME280;4328;48.622;9.230;2024-02-21T01:19:39;98967.50;;;4.43;92.46
8581;BME280;4328;48.622;9.230;2024-02-21T01:22:05;98954.81;;;4.45;92.34
8581;BME280;4328;48.622;9.230;2024-02-21T01:24:32;98950.53;;;4.43;91.96
8581;BME280;4328;48.622;9.230;2024-02-21T01:26:59;98951.50;;;4.42;92.38
8581;BME280;4328;48.622;9.230;2024-02-21T01:29:25;98936.25;;;4.42;92.46
8581;BME280;4328;48.622;9.230;2024-02-21T01:31:52;98934.19;;;4.46;92.40
8581;BME280;4328;48.622;9.230;2024-02-21T01:34:18;98934.69;;;4.40;92.31
8581;BME280;4328;48.622;9.230;2024-02-21T01:36:46;98930.03;;;4.42;92.11
8581;BME280;4328;48.622;9.230;2024-02-21T01:39:13;98921.84;;;4.43;91.91
8581;BME280;4328;48.622;9.230;2024-02-21T01:41:39;98916.34;;;4.45;92.07
8581;BME280;4328;48.622;9.230;2024-02-21T01:44:06;98903.53;;;4.48;92.00
8581;BME280;4328;48.622;9.230;2024-02-21T01:46:32;98905.09;;;4.51;92.46
8581;BME280;4328;48.622;9.230;2024-02-21T01:49:00;98897.75;;;4.53;92.85
8581;BME280;4328;48.622;9.230;2024-02-21T01:51:27;98900.19;;;4.56;93.11
8581;BME280;4328;48.622;9.230;2024-02-21T01:53:57;98895.84;;;4.64;92.85
8581;BME280;4328;48.622;9.230;2024-02-21T01:56:24;98889.88;;;4.61;92.67
8581;BME280;4328;48.622;9.230;2024-02-21T01:58:51;98880.72;;;4.63;92.56
8581;BME280;4328;48.622;9.230;2024-02-21T02:01:18;98871.09;;;4.61;92.45
8581;BME280;4328;48.622;9.230;2024-02-21T02:03:45;98871.28;;;4.69;92.57
8581;BME280;4328;48.622;9.230;2024-02-21T02:06:12;98876.38;;;4.72;92.27
8581;BME280;4328;48.622;9.230;2024-02-21T02:08:39;98866.09;;;4.77;92.55
8581;BME280;4328;48.622;9.230;2024-02-21T02:11:07;98865.84;;;4.80;91.67
8581;BME280;4328;48.622;9.230;2024-02-21T02:13:34;98858.38;;;4.84;91.48
8581;BME280;4328;48.622;9.230;2024-02-21T02:16:00;98852.41;;;4.80;91.21
8581;BME280;4328;48.622;9.230;2024-02-21T02:18:27;98846.91;;;4.82;90.90
8581;BME280;4328;48.622;9.230;2024-02-21T02:20:54;98855.53;;;4.85;90.55
8581;BME280;4328;48.622;9.230;2024-02-21T02:23:24;98848.91;;;4.89;90.18
8581;BME280;4328;48.622;9.230;2024-02-21T02:25:51;98842.81;;;4.87;90.32
8581;BME280;4328;48.622;9.230;2024-02-21T02:28:18;98831.94;;;4.89;90.20
8581;BME280;4328;48.622;9.230;2024-02-21T02:30:45;98824.22;;;4.95;89.74
8581;BME280;4328;48.622;9.230;2024-02-21T02:33:12;98824.91;;;4.97;89.52
8581;BME280;4328;48.622;9.230;2024-02-21T02:35:39;98821.34;;;4.97;89.84
8581;BME280;4328;48.622;9.230;2024-02-21T02:38:06;98821.69;;;5.03;89.96
8581;BME280;4328;48.622;9.230;2024-02-21T02:40:34;98797.72;;;4.91;89.89
8581;BME280;4328;48.622;9.230;2024-02-21T02:43:01;98811.81;;;5.14;89.76
8581;BME280;4328;48.622;9.230;2024-02-21T02:45:28;98817.47;;;5.20;89.88
8581;BME280;4328;48.622;9.230;2024-02-21T02:47:57;98818.06;;;5.24;89.43
8581;BME280;4328;48.622;9.230;2024-02-21T02:50:24;98781.38;;;5.03;89.43
8581;BME280;4328;48.622;9.230;2024-02-21T02:52:51;98803.78;;;5.23;89.44
8581;BME280;4328;48.622;9.230;2024-02-21T02:55:18;98801.09;;;5.23;89.43
8581;BME280;4328;48.622;9.230;2024-02-21T02:57:46;98793.59;;;5.27;89.45
8581;BME280;4328;48.622;9.230;2024-02-21T03:00:14;98798.25;;;5.25;90.27
8581;BME280;4328;48.622;9.230;2024-02-21T03:02:42;98794.59;;;5.26;90.28
8581;BME280;4328;48.622;9.230;2024-02-21T03:05:12;98785.28;;;5.30;89.48
8581;BME280;4328;48.622;9.230;2024-02-21T03:07:40;98773.94;;;5.36;89.65
8581;BME280;4328;48.622;9.230;2024-02-21T03:10:07;98770.00;;;5.40;87.98
8581;BME280;4328;48.622;9.230;2024-02-21T03:12:33;98759.97;;;5.42;88.01
8581;BME280;4328;48.622;9.230;2024-02-21T03:15:02;98760.38;;;5.47;88.10
8581;BME280;4328;48.622;9.230;2024-02-21T03:17:28;98756.69;;;5.48;87.74
8581;BME280;4328;48.622;9.230;2024-02-21T03:19:55;98718.47;;;5.35;88.04
8581;BME280;4328;48.622;9.230;2024-02-21T03:22:22;98755.00;;;5.57;88.04
8581;BME280;4328;48.622;9.230;2024-02-21T03:24:48;98750.34;;;5.59;87.63
8581;BME280;4328;48.622;9.230;2024-02-21T03:27:15;98757.81;;;5.55;88.42
8581;BME280;4328;48.622;9.230;2024-02-21T03:29:42;98748.34;;;5.51;88.20
8581;BME280;4328;48.622;9.230;2024-02-21T03:32:10;98734.91;;;5.41;88.64
8581;BME280;4328;48.622;9.230;2024-02-21T03:34:37;98738.28;;;5.34;88.97
8581;BME280;4328;48.622;9.230;2024-02-21T03:37:03;98727.66;;;5.32;89.52
8581;BME280;4328;48.622;9.230;2024-02-21T03:39:31;98733.03;;;5.32;89.34
8581;BME280;4328;48.622;9.230;2024-02-21T03:41:57;98742.53;;;5.27;89.77
8581;BME280;4328;48.622;9.230;2024-02-21T03:44:25;98741.09;;;5.23;90.38
8581;BME280;4328;48.622;9.230;2024-02-21T03:46:52;98733.59;;;5.17;90.26
8581;BME280;4328;48.622;9.230;2024-02-21T03:49:20;98733.72;;;5.15;90.59
8581;BME280;4328;48.622;9.230;2024-02-21T03:51:47;98731.72;;;5.07;90.51
8581;BME280;4328;48.622;9.230;2024-02-21T03:54:14;98728.59;;;5.02;91.32
8581;BME280;4328;48.622;9.230;2024-02-21T03:56:40;98666.69;;;4.64;90.81
8581;BME280;4328;48.622;9.230;2024-02-21T03:59:07;98735.94;;;5.00;91.81
8581;BME280;4328;48.622;9.230;2024-02-21T04:01:34;98738.75;;;4.99;91.77
8581;BME280;4328;48.622;9.230;2024-02-21T04:04:01;98742.31;;;4.99;92.04
8581;BME280;4328;48.622;9.230;2024-02-21T04:06:29;98745.84;;;5.00;91.93
8581;BME280;4328;48.622;9.230;2024-02-21T04:08:56;98747.81;;;4.98;92.13
8581;BME280;4328;48.622;9.230;2024-02-21T04:11:23;98646.66;;;4.38;92.63
8581;BME280;4328;48.622;9.230;2024-02-21T04:13:49;98751.47;;;4.97;92.80
8581;BME280;4328;48.622;9.230;2024-02-21T04:16:16;98738.34;;;4.94;92.77
8581;BME280;4328;48.622;9.230;2024-02-21T04:18:43;98732.84;;;4.95;92.45
8581;BME280;4328;48.622;9.230;2024-02-21T04:21:14;98719.41;;;4.95;92.13
8581;BME280;4328;48.622;9.230;2024-02-21T04:23:42;98716.25;;;4.90;92.63
8581;BME280;4328;48.622;9.230;2024-02-21T04:26:09;98693.72;;;4.72;92.21
8581;BME280;4328;48.622;9.230;2024-02-21T04:28:35;98711.84;;;4.80;91.68
8581;BME280;4328;48.622;9.230;2024-02-21T04:31:02;98705.19;;;4.74;92.32
8581;BME280;4328;48.622;9.230;2024-02-21T04:33:29;98670.31;;;4.44;92.50
8581;BME280;4328;48.622;9.230;2024-02-21T04:35:55;98689.41;;;4.50;93.16
8581;BME280;4328;48.622;9.230;2024-02-21T04:38:23;98685.56;;;4.43;93.60
8581;BME280;4328;48.622;9.230;2024-02-21T04:40:51;98679.59;;;4.40;94.73
8581;BME280;4328;48.622;9.230;2024-02-21T04:43:18;98686.25;;;4.35;95.13
8581;BME280;4328;48.622;9.230;2024-02-21T04:45:44;98698.38;;;4.30;95.67
8581;BME280;4328;48.622;9.230;2024-02-21T04:48:11;98695.81;;;4.28;95.93
8581;BME280;4328;48.622;9.230;2024-02-21T04:50:38;98680.69;;;4.27;96.41
8581;BME280;4328;48.622;9.230;2024-02-21T04:53:06;98681.16;;;4.32;96.24
8581;BME280;4328;48.622;9.230;2024-02-21T04:55:33;98668.97;;;4.28;96.55
8581;BME280;4328;48.622;9.230;2024-02-21T04:58:01;98653.13;;;4.25;96.65
8581;BME280;4328;48.622;9.230;2024-02-21T05:00:28;98670.06;;;4.26;96.75
8581;BME280;4328;48.622;9.230;2024-02-21T05:02:55;98673.63;;;4.26;96.84
8581;BME280;4328;48.622;9.230;2024-02-21T05:05:22;98674.03;;;4.22;96.78
8581;BME280;4328;48.622;9.230;2024-02-21T05:07:48;98669.06;;;4.17;96.84
8581;BME280;4328;48.622;9.230;2024-02-21T05:10:15;98680.22;;;4.13;96.55
8581;BME280;4328;48.622;9.230;2024-02-21T05:12:42;98675.19;;;3.98;96.56
8581;BME280;4328;48.622;9.230;2024-02-21T05:15:10;98673.56;;;3.86;96.25
8581;BME280;4328;48.622;9.230;2024-02-21T05:17:37;98684.25;;;3.77;96.98
8581;BME280;4328;48.622;9.230;2024-02-21T05:20:05;98613.84;;;3.22;97.15
8581;BME280;4328;48.622;9.230;2024-02-21T05:22:31;98697.22;;;3.60;98.14
8581;BME280;4328;48.622;9.230;2024-02-21T05:24:58;98692.13;;;3.57;98.48
8581;BME280;4328;48.622;9.230;2024-02-21T05:27:24;98696.06;;;3.53;98.93
8581;BME280;4328;48.622;9.230;2024-02-21T05:29:51;98694.72;;;3.48;99.34
8581;BME280;4328;48.622;9.230;2024-02-21T05:32:19;98686.22;;;3.43;99.30
8581;BME280;4328;48.622;9.230;2024-02-21T05:34:48;98688.31;;;3.39;99.28
8581;BME280;4328;48.622;9.230;2024-02-21T05:37:15;98685.28;;;3.33;99.56
8581;BME280;4328;48.622;9.230;2024-02-21T05:39:41;98672.28;;;3.28;100.00
8581;BME280;4328;48.622;9.230;2024-02-21T05:42:08;98670.09;;;3.22;100.00
8581;BME280;4328;48.622;9.230;2024-02-21T05:44:34;98659.91;;;3.16;99.96
8581;BME280;4328;48.622;9.230;2024-02-21T05:47:01;98653.84;;;3.14;100.00
8581;BME280;4328;48.622;9.230;2024-02-21T05:49:29;98658.00;;;3.07;100.00
8581;BME280;4328;48.622;9.230;2024-02-21T05:51:55;98656.69;;;3.01;100.00
8581;BME280;4328;48.622;9.230;2024-02-21T05:54:22;98652.53;;;2.97;100.00
8581;BME280;4328;48.622;9.230;2024-02-21T05:56:49;98640.72;;;3.00;100.00
8581;BME280;4328;48.622;9.230;2024-02-21T05:59:15;98646.81;;;3.02;100.00
8581;BME280;4328;48.622;9.230;2024-02-21T06:01:42;98651.19;;;3.03;100.00
8581;BME280;4328;48.622;9.230;2024-02-21T06:04:07;98649.97;;;3.07;100.00
8581;BME280;4328;48.622;9.230;2024-02-21T06:06:35;98636.19;;;3.11;100.00
8581;BME280;4328;48.622;9.230;2024-02-21T06:09:02;98632.03;;;3.07;100.00
8581;BME280;4328;48.622;9.230;2024-02-21T06:11:28;98643.13;;;3.14;100.00
8581;BME280;4328;48.622;9.230;2024-02-21T06:13:55;98631.66;;;3.12;100.00
8581;BME280;4328;48.622;9.230;2024-02-21T06:16:22;98633.75;;;3.08;100.00
8581;BME280;4328;48.622;9.230;2024-02-21T06:18:48;98641.66;;;3.10;100.00
8581;BME280;4328;48.622;9.230;2024-02-21T06:21:15;98646.16;;;3.09;100.00
8581;BME280;4328;48.622;9.230;2024-02-21T06:23:43;98644.69;;;3.16;100.00
8581;BME280;4328;48.622;9.230;2024-02-21T06:26:09;98628.13;;;3.11;100.00
8581;BME280;4328;48.622;9.230;2024-02-21T06:28:36;98612.00;;;3.02;100.00
8581;BME280;4328;48.622;9.230;2024-02-21T06:31:03;98634.09;;;3.15;100.00
8581;BME280;4328;48.622;9.230;2024-02-21T06:33:30;98630.56;;;3.14;100.00
8581;BME280;4328;48.622;9.230;2024-02-21T06:35:56;98629.34;;;3.18;100.00
8581;BME280;4328;48.622;9.230;2024-02-21T06:38:23;98631.38;;;3.26;100.00
8581;BME280;4328;48.622;9.230;2024-02-21T06:40:51;98638.38;;;3.38;100.00
8581;BME280;4328;48.622;9.230;2024-02-21T06:43:20;98649.03;;;3.49;100.00
8581;BME280;4328;48.622;9.230;2024-02-21T06:45:47;98655.97;;;3.52;100.00
8581;BME280;4328;48.622;9.230;2024-02-21T06:48:16;98650.19;;;3.56;100.00
8581;BME280;4328;48.622;9.230;2024-02-21T06:50:43;98657.91;;;3.71;100.00
8581;BME280;4328;48.622;9.230;2024-02-21T06:53:09;98646.47;;;3.89;99.66
8581;BME280;4328;48.622;9.230;2024-02-21T06:55:36;98645.00;;;4.06;99.43
8581;BME280;4328;48.622;9.230;2024-02-21T06:58:04;98638.34;;;4.41;98.20
8581;BME280;4328;48.622;9.230;2024-02-21T07:00:33;98633.22;;;4.68;96.01
8581;BME280;4328;48.622;9.230;2024-02-21T07:03:00;98630.69;;;4.86;93.14
8581;BME280;4328;48.622;9.230;2024-02-21T07:05:26;98633.69;;;4.92;90.54
8581;BME280;4328;48.622;9.230;2024-02-21T07:07:53;98634.41;;;5.04;88.58
8581;BME280;4328;48.622;9.230;2024-02-21T07:10:20;98633.13;;;5.18;86.47
8581;BME280;4328;48.622;9.230;2024-02-21T07:12:46;98639.19;;;5.20;84.73
8581;BME280;4328;48.622;9.230;2024-02-21T07:15:15;98628.03;;;5.24;85.42
8581;BME280;4328;48.622;9.230;2024-02-21T07:17:42;98623.78;;;5.41;84.86
8581;BME280;4328;48.622;9.230;2024-02-21T07:20:09;98623.75;;;5.60;83.32
8581;BME280;4328;48.622;9.230;2024-02-21T07:22:36;98628.81;;;5.82;82.66
8581;BME280;4328;48.622;9.230;2024-02-21T07:25:03;98624.97;;;6.04;81.82
8581;BME280;4328;48.622;9.230;2024-02-21T07:27:30;98615.28;;;6.21;80.03
8581;BME280;4328;48.622;9.230;2024-02-21T07:29:58;98611.28;;;6.25;78.68
8581;BME280;4328;48.622;9.230;2024-02-21T07:32:26;98611.50;;;6.41;78.70
8581;BME280;4328;48.622;9.230;2024-02-21T07:34:52;98602.56;;;6.68;78.33
8581;BME280;4328;48.622;9.230;2024-02-21T07:37:19;98597.13;;;6.96;77.31
8581;BME280;4328;48.622;9.230;2024-02-21T07:39:45;98606.38;;;7.29;76.69
8581;BME280;4328;48.622;9.230;2024-02-21T07:42:12;98607.81;;;7.84;75.45
8581;BME280;4328;48.622;9.230;2024-02-21T07:44:39;98595.50;;;8.16;72.57
8581;BME280;4328;48.622;9.230;2024-02-21T07:47:05;98596.78;;;8.04;71.94
8581;BME280;4328;48.622;9.230;2024-02-21T07:49:40;98560.38;;;8.08;72.21
8581;BME280;4328;48.622;9.230;2024-02-21T07:52:07;98579.81;;;8.45;70.88
8581;BME280;4328;48.622;9.230;2024-02-21T07:54:34;98579.06;;;8.61;70.47
8581;BME280;4328;48.622;9.230;2024-02-21T07:57:00;98571.50;;;8.89;70.45
8581;BME280;4328;48.622;9.230;2024-02-21T07:59:28;98575.09;;;9.14;69.79
8581;BME280;4328;48.622;9.230;2024-02-21T08:01:59;98564.78;;;9.50;68.40
8581;BME280;4328;48.622;9.230;2024-02-21T08:04:29;98557.78;;;9.96;67.38
8581;BME280;4328;48.622;9.230;2024-02-21T08:06:59;98551.31;;;10.13;65.34
8581;BME280;4328;48.622;9.230;2024-02-21T08:09:28;98547.00;;;10.43;64.63
8581;BME280;4328;48.622;9.230;2024-02-21T08:11:54;98537.94;;;10.90;63.74
8581;BME280;4328;48.622;9.230;2024-02-21T08:14:21;98533.09;;;11.22;60.98
8581;BME280;4328;48.622;9.230;2024-02-21T08:16:50;98535.59;;;11.70;60.42
8581;BME280;4328;48.622;9.230;2024-02-21T08:19:16;98530.59;;;11.96;59.02
8581;BME280;4328;48.622;9.230;2024-02-21T08:21:43;98528.84;;;12.03;58.25
8581;BME280;4328;48.622;9.230;2024-02-21T08:24:13;98524.53;;;12.23;57.94
8581;BME280;4328;48.622;9.230;2024-02-21T08:26:40;98518.97;;;12.32;57.26
8581;BME280;4328;48.622;9.230;2024-02-21T08:29:07;98501.50;;;12.41;56.95
8581;BME280;4328;48.622;9.230;2024-02-21T08:31:33;98515.53;;;13.10;56.30
8581;BME280;4328;48.622;9.230;2024-02-21T08:34:01;98511.63;;;13.89;55.04
8581;BME280;4328;48.622;9.230;2024-02-21T08:36:29;98511.56;;;14.17;53.22
8581;BME280;4328;48.622;9.230;2024-02-21T08:38:55;98501.19;;;14.34;51.92
8581;BME280;4328;48.622;9.230;2024-02-21T08:41:24;98514.03;;;14.05;51.08
8581;BME280;4328;48.622;9.230;2024-02-21T08:43:51;98516.81;;;14.12;51.30
8581;BME280;4328;48.622;9.230;2024-02-21T08:46:19;98512.00;;;13.86;51.64
8581;BME280;4328;48.622;9.230;2024-02-21T08:48:45;98507.50;;;13.44;52.29
8581;BME280;4328;48.622;9.230;2024-02-21T08:51:13;98509.19;;;14.35;51.88
8581;BME280;4328;48.622;9.230;2024-02-21T08:53:39;98501.81;;;14.77;50.86
8581;BME280;4328;48.622;9.230;2024-02-21T08:56:07;98503.50;;;14.78;49.33
8581;BME280;4328;48.622;9.230;2024-02-21T08:58:35;98503.28;;;14.32;50.36
8581;BME280;4328;48.622;9.230;2024-02-21T09:01:03;98500.00;;;14.43;50.63
8581;BME280;4328;48.622;9.230;2024-02-21T09:03:31;98501.16;;;14.27;50.81
8581;BME280;4328;48.622;9.230;2024-02-21T09:05:58;98491.91;;;14.28;50.78
8581;BME280;4328;48.622;9.230;2024-02-21T09:08:24;98493.59;;;14.29;50.50
8581;BME280;4328;48.622;9.230;2024-02-21T09:10:51;98493.25;;;14.04;51.12
8581;BME280;4328;48.622;9.230;2024-02-21T09:13:18;98491.22;;;13.79;50.81
8581;BME280;4328;48.622;9.230;2024-02-21T09:15:47;98477.72;;;13.70;50.75
8581;BME280;4328;48.622;9.230;2024-02-21T09:18:13;98482.84;;;13.80;50.83
8581;BME280;4328;48.622;9.230;2024-02-21T09:20:40;98470.44;;;14.12;50.40
8581;BME280;4328;48.622;9.230;2024-02-21T09:23:07;98463.03;;;14.40;50.45
8581;BME280;4328;48.622;9.230;2024-02-21T09:25:33;98466.41;;;14.42;50.61
8581;BME280;4328;48.622;9.230;2024-02-21T09:28:01;98464.63;;;14.22;51.32
8581;BME280;4328;48.622;9.230;2024-02-21T09:30:29;98460.31;;;14.40;50.29
8581;BME280;4328;48.622;9.230;2024-02-21T09:32:57;98458.81;;;14.86;49.79
8581;BME280;4328;48.622;9.230;2024-02-21T09:35:24;98441.97;;;14.75;49.96
8581;BME280;4328;48.622;9.230;2024-02-21T09:37:52;98441.84;;;15.36;48.91
8581;BME280;4328;48.622;9.230;2024-02-21T09:40:19;98437.66;;;15.60;47.38
8581;BME280;4328;48.622;9.230;2024-02-21T09:42:47;98434.44;;;17.30;45.74
8581;BME280;4328;48.622;9.230;2024-02-21T09:45:20;98410.22;;;17.95;43.64
8581;BME280;4328;48.622;9.230;2024-02-21T09:47:55;98429.88;;;18.47;42.60
8581;BME280;4328;48.622;9.230;2024-02-21T09:50:29;98434.25;;;19.14;40.75
8581;BME280;4328;48.622;9.230;2024-02-21T09:52:58;98424.63;;;18.93;40.64
8581;BME280;4328;48.622;9.230;2024-02-21T09:55:25;98406.19;;;19.35;40.42
8581;BME280;4328;48.622;9.230;2024-02-21T09:57:53;98422.28;;;20.08;39.54
8581;BME280;4328;48.622;9.230;2024-02-21T10:00:20;98415.63;;;21.13;38.04
8581;BME280;4328;48.622;9.230;2024-02-21T10:02:48;98405.22;;;22.81;36.44
8581;BME280;4328;48.622;9.230;2024-02-21T10:05:15;98412.13;;;24.01;33.82
8581;BME280;4328;48.622;9.230;2024-02-21T10:07:44;98413.56;;;22.64;34.07
8581;BME280;4328;48.622;9.230;2024-02-21T10:10:11;98417.31;;;22.53;34.44
8581;BME280;4328;48.622;9.230;2024-02-21T10:12:48;98418.00;;;21.88;35.75
8581;BME280;4328;48.622;9.230;2024-02-21T10:15:20;98416.00;;;20.88;36.00
8581;BME280;4328;48.622;9.230;2024-02-21T10:17:49;98415.78;;;19.33;38.58
8581;BME280;4328;48.622;9.230;2024-02-21T10:20:16;98423.84;;;18.56;40.25
8581;BME280;4328;48.622;9.230;2024-02-21T10:22:43;98410.72;;;19.18;39.53
8581;BME280;4328;48.622;9.230;2024-02-21T10:25:11;98397.38;;;19.33;39.42
8581;BME280;4328;48.622;9.230;2024-02-21T10:27:38;98361.91;;;19.67;38.75
8581;BME280;4328;48.622;9.230;2024-02-21T10:30:06;98372.75;;;20.60;37.37
8581;BME280;4328;48.622;9.230;2024-02-21T10:32:33;98367.00;;;21.07;36.66
8581;BME280;4328;48.622;9.230;2024-02-21T10:35:04;98370.88;;;22.11;35.69
8581;BME280;4328;48.622;9.230;2024-02-21T10:37:31;98363.22;;;21.13;35.83
8581;BME280;4328;48.622;9.230;2024-02-21T10:40:00;98306.09;;;21.58;34.99
8581;BME280;4328;48.622;9.230;2024-02-21T10:42:29;98353.22;;;22.12;34.77
8581;BME280;4328;48.622;9.230;2024-02-21T10:45:00;98357.72;;;21.80;34.37
8581;BME280;4328;48.622;9.230;2024-02-21T10:47:31;98364.72;;;21.32;34.91
8581;BME280;4328;48.622;9.230;2024-02-21T10:50:02;98356.94;;;21.46;35.56
8581;BME280;4328;48.622;9.230;2024-02-21T10:52:49;98353.56;;;21.10;35.38
8581;BME280;4328;48.622;9.230;2024-02-21T10:55:26;98345.66;;;20.29;36.76
8581;BME280;4328;48.622;9.230;2024-02-21T10:57:53;98347.34;;;20.86;35.57
8581;BME280;4328;48.622;9.230;2024-02-21T11:00:23;98338.09;;;20.36;36.50
8581;BME280;4328;48.622;9.230;2024-02-21T11:02:56;98335.13;;;20.26;36.87
8581;BME280;4328;48.622;9.230;2024-02-21T11:05:23;98325.97;;;19.97;36.68
8581;BME280;4328;48.622;9.230;2024-02-21T11:07:51;98320.59;;;19.08;37.46
8581;BME280;4328;48.622;9.230;2024-02-21T11:10:22;98317.66;;;19.57;37.78
8581;BME280;4328;48.622;9.230;2024-02-21T11:12:52;98308.41;;;19.86;37.60
8581;BME280;4328;48.622;9.230;2024-02-21T11:15:19;98304.19;;;19.95;37.58
8581;BME280;4328;48.622;9.230;2024-02-21T11:17:54;98302.69;;;19.18;38.58
8581;BME280;4328;48.622;9.230;2024-02-21T11:20:31;98292.28;;;17.77;40.61
8581;BME280;4328;48.622;9.230;2024-02-21T11:22:59;98297.81;;;18.66;39.91
8581;BME280;4328;48.622;9.230;2024-02-21T11:25:27;98284.66;;;18.27;40.62
8581;BME280;4328;48.622;9.230;2024-02-21T11:28:00;98287.47;;;17.90;41.27
8581;BME280;4328;48.622;9.230;2024-02-21T11:30:27;98251.28;;;18.12;40.69
8581;BME280;4328;48.622;9.230;2024-02-21T11:32:59;98266.34;;;19.04;40.44
8581;BME280;4328;48.622;9.230;2024-02-21T11:35:31;98257.25;;;18.09;40.31
8581;BME280;4328;48.622;9.230;2024-02-21T11:38:07;98255.34;;;18.09;40.77
8581;BME280;4328;48.622;9.230;2024-02-21T11:40:38;98221.69;;;18.02;41.01
8581;BME280;4328;48.622;9.230;2024-02-21T11:43:06;98235.84;;;17.69;41.89
8581;BME280;4328;48.622;9.230;2024-02-21T11:45:33;98235.75;;;18.05;41.64
8581;BME280;4328;48.622;9.230;2024-02-21T11:48:00;98231.25;;;17.81;41.91
8581;BME280;4328;48.622;9.230;2024-02-21T11:50:29;98223.22;;;17.61;42.31
8581;BME280;4328;48.622;9.230;2024-02-21T11:52:55;98220.56;;;17.37;42.56
8581;BME280;4328;48.622;9.230;2024-02-21T11:55:22;98220.72;;;17.60;42.58
8581;BME280;4328;48.622;9.230;2024-02-21T11:57:51;98211.59;;;17.66;42.40
8581;BME280;4328;48.622;9.230;2024-02-21T12:00:19;98211.38;;;17.67;42.25
8581;BME280;4328;48.622;9.230;2024-02-21T12:02:48;98204.91;;;17.44;42.36
8581;BME280;4328;48.622;9.230;2024-02-21T12:05:19;98171.22;;;16.82;42.41
8581;BME280;4328;48.622;9.230;2024-02-21T12:07:46;98193.63;;;16.47;43.40
8581;BME280;4328;48.622;9.230;2024-02-21T12:10:13;98190.97;;;16.66;42.40
8581;BME280;4328;48.622;9.230;2024-02-21T12:12:40;98175.31;;;16.73;42.28
8581;BME280;4328;48.622;9.230;2024-02-21T12:15:08;98179.88;;;16.79;41.41
8581;BME280;4328;48.622;9.230;2024-02-21T12:17:35;98170.47;;;16.93;41.15
8581;BME280;4328;48.622;9.230;2024-02-21T12:20:02;98172.75;;;17.51;40.54
8581;BME280;4328;48.622;9.230;2024-02-21T12:22:30;98165.41;;;18.23;40.28
8581;BME280;4328;48.622;9.230;2024-02-21T12:24:58;98155.41;;;18.17;39.27
8581;BME280;4328;48.622;9.230;2024-02-21T12:27:25;98149.41;;;18.61;38.90
8581;BME280;4328;48.622;9.230;2024-02-21T12:29:52;98150.53;;;18.54;39.24
8581;BME280;4328;48.622;9.230;2024-02-21T12:32:19;98150.09;;;18.68;38.99
8581;BME280;4328;48.622;9.230;2024-02-21T12:34:46;98142.25;;;19.35;38.38
8581;BME280;4328;48.622;9.230;2024-02-21T12:37:13;98133.25;;;18.76;38.07
8581;BME280;4328;48.622;9.230;2024-02-21T12:39:41;98130.56;;;19.28;38.52
8581;BME280;4328;48.622;9.230;2024-02-21T12:42:07;98128.28;;;19.25;38.11
8581;BME280;4328;48.622;9.230;2024-02-21T12:44:36;98113.75;;;19.65;36.77
8581;BME280;4328;48.622;9.230;2024-02-21T12:47:03;98112.59;;;20.23;35.29
8581;BME280;4328;48.622;9.230;2024-02-21T12:49:31;98105.66;;;20.53;34.94
8581;BME280;4328;48.622;9.230;2024-02-21T12:51:58;98105.88;;;20.18;34.44
8581;BME280;4328;48.622;9.230;2024-02-21T12:54:24;98102.31;;;20.35;35.11
8581;BME280;4328;48.622;9.230;2024-02-21T12:56:51;98091.69;;;20.38;35.36
8581;BME280;4328;48.622;9.230;2024-02-21T12:59:17;98078.22;;;20.59;34.62
8581;BME280;4328;48.622;9.230;2024-02-21T13:01:44;98082.94;;;20.30;34.91
8581;BME280;4328;48.622;9.230;2024-02-21T13:04:11;98077.44;;;20.30;35.75
8581;BME280;4328;48.622;9.230;2024-02-21T13:06:39;98072.09;;;19.90;35.09
8581;BME280;4328;48.622;9.230;2024-02-21T13:09:05;98063.91;;;19.78;35.62
8581;BME280;4328;48.622;9.230;2024-02-21T13:11:36;98063.19;;;19.14;36.20
8581;BME280;4328;48.622;9.230;2024-02-21T13:14:03;98057.69;;;18.39;36.29
8581;BME280;4328;48.622;9.230;2024-02-21T13:16:29;98056.88;;;17.74;37.22
8581;BME280;4328;48.622;9.230;2024-02-21T13:18:56;98047.09;;;17.48;38.43
8581;BME280;4328;48.622;9.230;2024-02-21T13:21:22;98039.59;;;17.13;39.58
8581;BME280;4328;48.622;9.230;2024-02-21T13:23:50;98033.56;;;16.75;40.55
8581;BME280;4328;48.622;9.230;2024-02-21T13:26:17;98033.47;;;16.81;41.34
8581;BME280;4328;48.622;9.230;2024-02-21T13:28:44;98030.03;;;17.04;41.29